createdAt,value
2022-12-03T00:01:36.960Z,9.84
2022-12-03T00:04:06.311Z,9.87
2022-12-03T00:06:35.333Z,9.82
2022-12-03T00:09:05.629Z,9.53
2022-12-03T00:11:35.951Z,9.42
2022-12-03T00:14:04.932Z,9.53
2022-12-03T00:16:33.852Z,9.57
2022-12-03T00:19:03.267Z,9.56
2022-12-03T00:21:32.700Z,9.68
2022-12-03T00:24:02.012Z,9.78
2022-12-03T00:26:30.875Z,9.76
2022-12-03T00:29:01.201Z,9.76
2022-12-03T00:31:30.147Z,9.83
2022-12-03T00:33:59.156Z,9.77
2022-12-03T00:36:28.030Z,9.85
2022-12-03T00:38:56.999Z,9.87
2022-12-03T00:41:25.889Z,9.89
2022-12-03T00:43:57.550Z,9.89
2022-12-03T00:46:28.347Z,9.85
2022-12-03T00:48:57.310Z,9.82
2022-12-03T00:51:26.282Z,9.54
2022-12-03T00:53:56.807Z,9.70
2022-12-03T00:56:25.692Z,9.72
2022-12-03T00:58:57.166Z,9.75
2022-12-03T01:01:27.737Z,9.78
2022-12-03T01:03:56.679Z,9.74
2022-12-03T01:06:25.572Z,9.76
2022-12-03T01:08:54.599Z,9.72
2022-12-03T01:11:38.790Z,9.77
2022-12-03T01:14:08.397Z,9.68
2022-12-03T01:16:39.141Z,9.79
2022-12-03T01:19:08.760Z,9.86
2022-12-03T01:21:37.925Z,9.61
2022-12-03T01:24:07.503Z,9.53
2022-12-03T01:26:36.345Z,9.24
2022-12-03T01:29:05.741Z,9.32
2022-12-03T01:31:52.101Z,9.42
2022-12-03T01:34:22.537Z,9.29
2022-12-03T01:36:52.613Z,9.14
2022-12-03T01:39:21.723Z,9.12
2022-12-03T01:41:53.102Z,9.10
2022-12-03T01:44:25.186Z,9.03
2022-12-03T01:46:56.645Z,9.03
2022-12-03T01:49:30.389Z,9.11
2022-12-03T01:52:00.697Z,9.09
2022-12-03T01:54:37.713Z,9.09
2022-12-03T01:57:07.455Z,9.09
2022-12-03T01:59:39.888Z,9.18
2022-12-03T02:02:15.273Z,9.15
2022-12-03T02:04:45.757Z,9.28
2022-12-03T02:07:19.846Z,9.19
2022-12-03T02:09:49.105Z,9.23
2022-12-03T02:12:21.380Z,9.19
2022-12-03T02:14:51.458Z,9.22
2022-12-03T02:17:20.933Z,9.17
2022-12-03T02:19:51.462Z,9.06
2022-12-03T02:22:31.573Z,9.05
2022-12-03T02:25:16.662Z,9.06
2022-12-03T02:27:46.840Z,9.11
2022-12-03T02:30:19.323Z,8.89
2022-12-03T02:32:48.919Z,9.07
2022-12-03T02:35:19.903Z,9.16
2022-12-03T02:37:52.316Z,9.08
2022-12-03T02:40:26.097Z,9.16
2022-12-03T02:42:58.831Z,9.11
2022-12-03T02:45:30.625Z,9.11
2022-12-03T02:48:03.334Z,9.24
2022-12-03T02:50:35.060Z,9.30
2022-12-03T02:53:06.919Z,9.10
2022-12-03T02:55:38.190Z,9.29
2022-12-03T02:58:07.270Z,9.36
2022-12-03T03:00:37.564Z,9.42
2022-12-03T03:03:08.399Z,9.54
2022-12-03T03:05:40.056Z,9.42
2022-12-03T03:08:10.177Z,9.49
2022-12-03T03:10:42.088Z,9.18
2022-12-03T03:13:13.611Z,9.21
2022-12-03T03:15:43.528Z,9.20
2022-12-03T03:18:14.434Z,9.26
2022-12-03T03:20:44.659Z,9.21
2022-12-03T03:23:19.953Z,9.36
2022-12-03T03:25:55.471Z,9.42
2022-12-03T03:28:25.122Z,9.30
2022-12-03T03:30:54.326Z,9.31
2022-12-03T03:33:23.490Z,9.23
2022-12-03T03:35:52.696Z,9.18
2022-12-03T03:38:23.304Z,9.05
2022-12-03T03:40:54.758Z,9.11
2022-12-03T03:43:24.525Z,9.05
2022-12-03T03:45:55.175Z,9.11
2022-12-03T03:48:24.389Z,9.11
2022-12-03T03:50:53.767Z,9.11
2022-12-03T03:53:23.920Z,9.24
2022-12-03T03:55:54.751Z,9.28
2022-12-03T03:58:23.691Z,9.18
2022-12-03T04:00:53.267Z,9.14
2022-12-03T04:03:22.168Z,9.03
2022-12-03T04:05:51.432Z,9.02
2022-12-03T04:08:20.419Z,8.99
2022-12-03T04:11:06.722Z,8.85
2022-12-03T04:13:37.013Z,8.81
2022-12-03T04:16:06.322Z,9.05
2022-12-03T04:18:44.114Z,8.99
2022-12-03T04:21:33.151Z,9.09
2022-12-03T04:24:02.404Z,9.04
2022-12-03T04:26:49.292Z,9.18
2022-12-03T04:29:22.508Z,9.40
2022-12-03T04:32:09.313Z,9.75
2022-12-03T04:34:55.747Z,9.66
2022-12-03T04:37:25.025Z,9.93
2022-12-03T04:39:53.903Z,9.78
2022-12-03T04:42:22.808Z,9.41
2022-12-03T04:44:53.257Z,9.34
2022-12-03T04:47:23.214Z,9.17
2022-12-03T04:49:52.814Z,8.57
2022-12-03T04:52:22.387Z,8.87
2022-12-03T04:55:06.983Z,8.50
2022-12-03T04:57:35.863Z,8.66
2022-12-03T05:00:07.517Z,8.83
2022-12-03T05:02:36.480Z,8.87
2022-12-03T05:05:05.984Z,8.93
2022-12-03T05:07:34.971Z,9.10
2022-12-03T05:10:04.599Z,9.18
2022-12-03T05:12:33.463Z,9.11
2022-12-03T05:15:02.617Z,8.98
2022-12-03T05:17:32.877Z,8.92
2022-12-03T05:20:19.476Z,8.60
2022-12-03T05:22:48.433Z,8.67
2022-12-03T05:25:17.439Z,8.40
2022-12-03T05:27:46.369Z,8.55
2022-12-03T05:30:15.824Z,8.42
2022-12-03T05:32:46.223Z,8.65
2022-12-03T05:35:15.200Z,8.81
2022-12-03T05:37:44.393Z,8.81
2022-12-03T05:40:14.562Z,8.62
2022-12-03T05:42:54.835Z,8.79
2022-12-03T05:45:25.261Z,8.99
2022-12-03T05:47:56.628Z,9.07
2022-12-03T05:50:27.632Z,9.10
2022-12-03T05:52:57.538Z,8.97
2022-12-03T05:55:26.911Z,9.10
2022-12-03T05:57:55.966Z,9.09
2022-12-03T06:00:26.498Z,9.02
2022-12-03T06:02:57.417Z,8.90
2022-12-03T06:05:26.843Z,8.77
2022-12-03T06:07:56.368Z,8.65
2022-12-03T06:10:26.836Z,8.68
2022-12-03T06:12:55.739Z,8.72
2022-12-03T06:15:25.028Z,8.73
2022-12-03T06:17:53.872Z,8.80
2022-12-03T06:20:24.187Z,8.82
2022-12-03T06:22:53.069Z,8.86
2022-12-03T06:25:21.967Z,8.70
2022-12-03T06:27:50.849Z,8.79
2022-12-03T06:30:19.862Z,8.64
2022-12-03T06:32:48.752Z,8.63
2022-12-03T06:35:17.699Z,8.54
2022-12-03T06:37:47.998Z,8.28
2022-12-03T06:40:17.102Z,8.04
2022-12-03T06:42:46.037Z,8.01
2022-12-03T06:45:15.147Z,7.80
2022-12-03T06:47:44.084Z,7.97
2022-12-03T06:50:13.948Z,8.04
2022-12-03T06:52:42.932Z,7.96
2022-12-03T06:55:13.201Z,8.09
2022-12-03T06:57:42.042Z,8.21
2022-12-03T07:00:12.424Z,8.37
2022-12-03T07:02:41.492Z,8.63
2022-12-03T07:05:10.889Z,8.59
2022-12-03T07:07:41.004Z,8.12
2022-12-03T07:10:10.575Z,8.33
2022-12-03T07:12:40.752Z,8.14
2022-12-03T07:15:10.529Z,8.38
2022-12-03T07:17:39.392Z,8.14
2022-12-03T07:20:09.540Z,8.39
2022-12-03T07:22:38.407Z,8.36
2022-12-03T07:25:08.231Z,8.27
2022-12-03T07:27:37.135Z,8.31
2022-12-03T07:30:09.456Z,8.15
2022-12-03T07:32:38.343Z,8.17
2022-12-03T07:35:07.812Z,8.05
2022-12-03T07:37:36.716Z,7.95
2022-12-03T07:40:06.966Z,8.05
2022-12-03T07:42:35.909Z,8.12
2022-12-03T07:45:05.284Z,8.10
2022-12-03T07:47:35.742Z,8.12
2022-12-03T07:50:04.823Z,8.24
2022-12-03T07:52:33.691Z,8.18
2022-12-03T07:55:03.252Z,8.24
2022-12-03T07:57:32.249Z,8.33
2022-12-03T08:00:01.138Z,8.51
2022-12-03T08:02:30.193Z,8.54
2022-12-03T08:05:00.499Z,8.50
2022-12-03T08:07:30.389Z,8.49
2022-12-03T08:09:59.356Z,8.57
2022-12-03T08:12:40.208Z,8.39
2022-12-03T08:15:14.616Z,8.63
2022-12-03T08:17:44.439Z,8.75
2022-12-03T08:20:18.837Z,8.71
2022-12-03T08:22:50.503Z,9.20
2022-12-03T08:25:22.770Z,9.39
2022-12-03T08:27:53.049Z,9.27
2022-12-03T08:30:22.923Z,9.02
2022-12-03T08:32:52.562Z,9.01
2022-12-03T08:35:25.998Z,8.79
2022-12-03T08:38:00.974Z,8.81
2022-12-03T08:40:36.200Z,8.82
2022-12-03T08:43:14.877Z,8.44
2022-12-03T08:45:44.217Z,8.71
2022-12-03T08:48:33.704Z,9.25
2022-12-03T08:51:10.231Z,9.44
2022-12-03T08:53:42.632Z,9.82
2022-12-03T08:56:22.559Z,9.25
2022-12-03T08:58:54.814Z,9.99
2022-12-03T09:01:34.872Z,9.87
2022-12-03T09:04:22.603Z,10.19
2022-12-03T09:06:54.206Z,10.44
2022-12-03T09:09:24.000Z,10.44
2022-12-03T09:11:54.007Z,10.31
2022-12-03T09:14:23.776Z,10.58
2022-12-03T09:16:55.982Z,11.41
2022-12-03T09:19:26.151Z,11.64
2022-12-03T09:21:56.447Z,10.96
2022-12-03T09:24:25.361Z,10.41
2022-12-03T09:26:54.361Z,10.33
2022-12-03T09:29:23.753Z,10.09
2022-12-03T09:31:52.726Z,10.03
2022-12-03T09:34:21.656Z,10.09
2022-12-03T09:36:50.576Z,9.94
2022-12-03T09:39:20.863Z,9.77
2022-12-03T09:41:50.930Z,9.89
2022-12-03T09:44:20.408Z,10.00
2022-12-03T09:46:49.700Z,9.64
2022-12-03T09:49:20.249Z,9.68
2022-12-03T09:51:49.221Z,9.45
2022-12-03T09:54:24.949Z,9.38
2022-12-03T09:56:54.906Z,8.98
2022-12-03T09:59:27.372Z,9.05
2022-12-03T10:01:56.657Z,9.33
2022-12-03T10:04:26.042Z,9.78
2022-12-03T10:06:55.324Z,9.77
2022-12-03T10:09:28.522Z,9.59
2022-12-03T10:11:58.524Z,9.76
2022-12-03T10:14:28.315Z,10.09
2022-12-03T10:16:57.578Z,10.19
2022-12-03T10:19:30.129Z,10.24
2022-12-03T10:21:59.495Z,10.29
2022-12-03T10:24:31.111Z,10.51
2022-12-03T10:27:02.081Z,10.67
2022-12-03T10:29:34.531Z,10.40
2022-12-03T10:32:05.843Z,10.47
2022-12-03T10:34:36.313Z,10.68
2022-12-03T10:37:14.821Z,10.11
2022-12-03T10:39:59.916Z,10.41
2022-12-03T10:42:31.479Z,10.67
2022-12-03T10:45:15.598Z,10.87
2022-12-03T10:47:45.615Z,11.00
2022-12-03T10:50:20.237Z,11.19
2022-12-03T10:52:49.368Z,10.98
2022-12-03T10:55:19.945Z,11.07
2022-12-03T10:57:49.005Z,10.81
2022-12-03T11:00:19.696Z,10.87
2022-12-03T11:02:54.954Z,11.06
2022-12-03T11:05:28.631Z,10.68
2022-12-03T11:07:57.934Z,10.53
2022-12-03T11:10:28.245Z,10.71
2022-12-03T11:13:29.245Z,10.41
2022-12-03T11:15:59.534Z,10.38
2022-12-03T11:19:01.235Z,10.56
2022-12-03T11:21:31.104Z,10.76
2022-12-03T11:24:20.521Z,10.88
2022-12-03T11:27:20.891Z,10.80
2022-12-03T11:30:01.244Z,10.84
2022-12-03T11:33:00.743Z,10.84
2022-12-03T11:35:36.853Z,10.19
2022-12-03T11:38:53.637Z,10.07
2022-12-03T11:41:29.136Z,9.76
2022-12-03T11:44:21.937Z,9.83
2022-12-03T11:46:52.178Z,10.14
2022-12-03T11:49:29.221Z,10.18
2022-12-03T11:51:59.026Z,10.23
2022-12-03T11:54:28.340Z,10.22
2022-12-03T11:56:57.348Z,10.02
2022-12-03T11:59:27.719Z,10.34
2022-12-03T12:01:58.052Z,10.57
2022-12-03T12:04:33.544Z,10.75
2022-12-03T12:07:03.130Z,10.89
2022-12-03T12:09:52.072Z,10.77
2022-12-03T12:12:28.575Z,11.34
2022-12-03T12:14:58.083Z,12.24
2022-12-03T12:17:34.486Z,11.65
2022-12-03T12:20:27.979Z,11.15
2022-12-03T12:22:57.655Z,10.68
2022-12-03T12:25:38.681Z,10.63
2022-12-03T12:28:08.747Z,10.93
2022-12-03T12:30:40.082Z,10.72
2022-12-03T12:33:19.112Z,10.81
2022-12-03T12:35:48.039Z,11.09
2022-12-03T12:38:19.052Z,10.94
2022-12-03T12:40:50.212Z,11.16
2022-12-03T12:43:24.678Z,11.43
2022-12-03T12:45:55.955Z,11.38
2022-12-03T12:48:28.620Z,11.33
2022-12-03T12:51:07.656Z,11.19
2022-12-03T12:53:37.499Z,10.69
2022-12-03T12:56:16.049Z,10.71
2022-12-03T12:58:45.091Z,10.80
2022-12-03T13:01:26.378Z,10.96
2022-12-03T13:03:56.824Z,10.95
2022-12-03T13:06:28.313Z,10.91
2022-12-03T13:08:58.771Z,10.91
2022-12-03T13:11:37.100Z,11.01
2022-12-03T13:14:14.593Z,11.13
2022-12-03T13:16:43.704Z,10.92
2022-12-03T13:19:23.940Z,9.99
2022-12-03T13:21:54.859Z,10.22
2022-12-03T13:24:31.525Z,10.20
2022-12-03T13:27:02.030Z,10.16
2022-12-03T13:29:33.145Z,10.44
2022-12-03T13:32:10.529Z,10.44
2022-12-03T13:34:41.133Z,10.51
2022-12-03T13:37:17.103Z,9.87
2022-12-03T13:39:50.417Z,10.04
2022-12-03T13:42:42.385Z,10.37
2022-12-03T13:45:31.815Z,10.66
2022-12-03T13:48:03.297Z,10.25
2022-12-03T13:50:37.688Z,10.11
2022-12-03T13:53:17.015Z,10.18
2022-12-03T13:55:48.441Z,10.37
2022-12-03T13:58:17.237Z,10.19
2022-12-03T14:00:46.276Z,10.52
2022-12-03T14:03:17.611Z,10.54
2022-12-03T14:05:47.787Z,10.04
2022-12-03T14:08:16.697Z,9.65
2022-12-03T14:10:45.662Z,9.26
2022-12-03T14:13:14.397Z,9.39
2022-12-03T14:15:43.232Z,9.34
2022-12-03T14:18:12.164Z,9.25
2022-12-03T14:20:40.932Z,8.88
2022-12-03T14:23:11.101Z,8.55
2022-12-03T14:25:39.899Z,8.38
2022-12-03T14:28:09.684Z,8.79
2022-12-03T14:30:38.561Z,8.75
2022-12-03T14:33:07.407Z,8.74
2022-12-03T14:35:37.561Z,8.71
2022-12-03T14:38:06.396Z,8.65
2022-12-03T14:40:36.550Z,8.48
2022-12-03T14:43:05.400Z,8.61
2022-12-03T14:45:34.228Z,8.94
2022-12-03T14:48:05.222Z,8.58
2022-12-03T14:50:34.006Z,8.87
2022-12-03T14:53:02.820Z,9.14
2022-12-03T14:55:32.244Z,9.16
2022-12-03T14:58:02.485Z,9.03
2022-12-03T15:00:31.360Z,9.03
2022-12-03T15:03:00.258Z,8.69
2022-12-03T15:05:29.621Z,8.82
2022-12-03T15:07:58.500Z,9.14
2022-12-03T15:10:27.784Z,9.47
2022-12-03T15:12:56.559Z,9.46
2022-12-03T15:15:26.769Z,9.44
2022-12-03T15:17:55.905Z,9.39
2022-12-03T15:20:24.744Z,9.42
2022-12-03T15:22:53.627Z,9.38
2022-12-03T15:25:25.717Z,8.65
2022-12-03T15:27:54.512Z,8.86
2022-12-03T15:30:23.415Z,9.06
2022-12-03T15:32:53.558Z,9.27
2022-12-03T15:35:22.300Z,9.49
2022-12-03T15:37:51.177Z,9.57
2022-12-03T15:40:20.208Z,8.97
2022-12-03T15:42:49.071Z,9.07
2022-12-03T15:45:18.446Z,9.40
2022-12-03T15:47:47.399Z,9.48
2022-12-03T15:50:17.755Z,9.70
2022-12-03T15:52:46.677Z,9.65
2022-12-03T15:55:16.369Z,9.42
2022-12-03T15:57:45.217Z,9.56
2022-12-03T16:00:15.279Z,9.63
2022-12-03T16:02:50.861Z,9.65
2022-12-03T16:05:22.753Z,9.67
2022-12-03T16:07:51.638Z,9.56
2022-12-03T16:10:21.576Z,9.02
2022-12-03T16:12:50.581Z,9.45
2022-12-03T16:15:25.083Z,9.58
2022-12-03T16:17:55.747Z,9.51
2022-12-03T16:20:28.501Z,9.70
2022-12-03T16:22:57.446Z,9.79
2022-12-03T16:25:28.040Z,9.97
2022-12-03T16:27:57.260Z,9.98
2022-12-03T16:30:26.105Z,10.06
2022-12-03T16:32:55.053Z,9.98
2022-12-03T16:35:25.228Z,9.73
2022-12-03T16:37:54.179Z,9.80
2022-12-03T16:40:23.148Z,9.94
2022-12-03T16:42:52.039Z,9.97
2022-12-03T16:45:33.686Z,10.09
2022-12-03T16:48:03.659Z,10.20
2022-12-03T16:50:33.847Z,10.22
2022-12-03T16:53:03.319Z,10.29
2022-12-03T16:55:32.844Z,10.30
2022-12-03T16:58:01.700Z,10.27
2022-12-03T17:00:30.558Z,10.31
2022-12-03T17:02:59.482Z,9.93
2022-12-03T17:05:28.428Z,10.03
2022-12-03T17:07:58.802Z,10.08
2022-12-03T17:10:27.954Z,9.99
2022-12-03T17:13:12.227Z,10.02
2022-12-03T17:15:41.692Z,10.16
2022-12-03T17:18:11.211Z,10.14
2022-12-03T17:20:40.020Z,9.92
2022-12-03T17:23:10.426Z,9.92
2022-12-03T17:25:39.253Z,9.91
2022-12-03T17:28:08.090Z,9.70
2022-12-03T17:30:36.875Z,9.70
2022-12-03T17:33:05.773Z,9.62
2022-12-03T17:35:34.608Z,9.66
2022-12-03T17:38:04.096Z,9.60
2022-12-03T17:40:34.306Z,9.63
2022-12-03T17:43:03.781Z,9.33
2022-12-03T17:45:32.602Z,9.31
2022-12-03T17:48:01.996Z,9.41
2022-12-03T17:50:30.813Z,9.52
2022-12-03T17:52:59.683Z,9.21
2022-12-03T17:55:37.226Z,9.11
2022-12-03T17:58:13.085Z,9.08
2022-12-03T18:00:41.919Z,9.00
2022-12-03T18:03:10.765Z,9.09
2022-12-03T18:05:39.558Z,9.17
2022-12-03T18:08:08.447Z,8.78
2022-12-03T18:10:37.371Z,8.95
2022-12-03T18:13:06.184Z,9.07
2022-12-03T18:15:36.348Z,9.36
2022-12-03T18:18:05.390Z,9.38
2022-12-03T18:20:34.394Z,9.31
2022-12-03T18:23:03.792Z,8.46
2022-12-03T18:25:32.739Z,8.83
2022-12-03T18:28:02.065Z,8.84
2022-12-03T18:30:31.079Z,8.83
2022-12-03T18:33:02.025Z,8.31
2022-12-03T18:35:31.892Z,7.72
2022-12-03T18:38:00.728Z,8.00
2022-12-03T18:40:29.704Z,8.20
2022-12-03T18:42:58.515Z,8.67
2022-12-03T18:45:27.322Z,8.70
2022-12-03T18:47:56.892Z,8.96
2022-12-03T18:50:27.191Z,9.06
2022-12-03T18:52:56.023Z,9.02
2022-12-03T18:55:27.061Z,9.28
2022-12-03T18:57:55.842Z,9.11
2022-12-03T19:00:24.970Z,9.32
2022-12-03T19:03:03.218Z,9.40
2022-12-03T19:05:36.024Z,9.42
2022-12-03T19:08:12.629Z,9.50
2022-12-03T19:10:42.654Z,9.41
2022-12-03T19:13:11.546Z,9.69
2022-12-03T19:15:40.863Z,9.76
2022-12-03T19:18:09.753Z,9.47
2022-12-03T19:20:42.691Z,9.52
2022-12-03T19:23:11.654Z,9.27
2022-12-03T19:25:40.471Z,9.12
2022-12-03T19:28:09.617Z,9.37
2022-12-03T19:30:38.461Z,9.52
2022-12-03T19:33:07.232Z,9.57
2022-12-03T19:35:40.467Z,9.77
2022-12-03T19:38:11.054Z,9.83
2022-12-03T19:40:39.814Z,9.45
2022-12-03T19:43:08.604Z,9.37
2022-12-03T19:45:37.692Z,9.07
2022-12-03T19:48:06.777Z,9.03
2022-12-03T19:50:35.592Z,9.11
2022-12-03T19:53:04.430Z,9.27
2022-12-03T19:55:37.445Z,9.56
2022-12-03T19:58:06.236Z,9.66
2022-12-03T20:00:35.528Z,9.64
2022-12-03T20:03:04.587Z,9.80
2022-12-03T20:05:37.392Z,9.63
2022-12-03T20:08:07.344Z,9.67
2022-12-03T20:10:37.592Z,9.71
2022-12-03T20:13:06.671Z,9.63
2022-12-03T20:15:37.975Z,9.47
2022-12-03T20:18:06.986Z,9.36
2022-12-03T20:20:35.791Z,9.32
2022-12-03T20:23:04.730Z,8.90
2022-12-03T20:25:33.526Z,9.12
2022-12-03T20:28:03.779Z,9.19
2022-12-03T20:30:32.583Z,9.46
2022-12-03T20:33:02.024Z,9.45
2022-12-03T20:35:30.783Z,9.40
2022-12-03T20:37:59.568Z,9.47
2022-12-03T20:40:28.507Z,9.50
2022-12-03T20:42:57.238Z,9.53
2022-12-03T20:45:28.332Z,9.48
2022-12-03T20:47:57.104Z,9.43
2022-12-03T20:50:25.930Z,9.30
2022-12-03T20:53:16.644Z,9.15
2022-12-03T20:55:43.427Z,9.50
2022-12-03T20:58:12.196Z,9.66
2022-12-03T21:00:42.345Z,9.66
2022-12-03T21:03:11.260Z,9.13
2022-12-03T21:05:40.132Z,8.71
2022-12-03T21:08:09.003Z,8.63
2022-12-03T21:10:44.787Z,8.60
2022-12-03T21:13:15.024Z,8.79
2022-12-03T21:15:46.567Z,8.99
2022-12-03T21:18:17.801Z,9.37
2022-12-03T21:20:48.514Z,9.44
2022-12-03T21:23:17.382Z,9.51
2022-12-03T21:25:46.239Z,9.47
2022-12-03T21:28:15.043Z,9.28
2022-12-03T21:30:45.435Z,9.44
2022-12-03T21:33:14.711Z,9.46
2022-12-03T21:35:43.550Z,9.53
2022-12-03T21:38:12.509Z,9.76
2022-12-03T21:40:41.432Z,10.12
2022-12-03T21:43:10.348Z,9.63
2022-12-03T21:45:40.995Z,9.57
2022-12-03T21:48:11.796Z,9.36
2022-12-03T21:50:40.721Z,8.65
2022-12-03T21:53:09.949Z,8.74
2022-12-03T21:55:39.918Z,8.59
2022-12-03T21:58:09.244Z,8.68
2022-12-03T22:00:38.133Z,8.62
2022-12-03T22:03:07.056Z,8.11
2022-12-03T22:05:40.858Z,7.81
2022-12-03T22:08:09.959Z,8.26
2022-12-03T22:10:40.693Z,8.37
2022-12-03T22:13:09.863Z,8.29
2022-12-03T22:15:40.131Z,8.13
2022-12-03T22:18:12.208Z,8.51
2022-12-03T22:20:44.303Z,8.44
2022-12-03T22:23:13.301Z,8.38
2022-12-03T22:25:45.553Z,8.13
2022-12-03T22:28:14.860Z,8.00
2022-12-03T22:30:43.863Z,8.23
2022-12-03T22:33:12.918Z,8.35
2022-12-03T22:35:41.820Z,7.81
2022-12-03T22:38:12.050Z,8.10
2022-12-03T22:40:41.154Z,7.62
2022-12-03T22:43:10.306Z,7.98
2022-12-03T22:45:39.192Z,8.26
2022-12-03T22:48:08.179Z,7.97
2022-12-03T22:50:42.740Z,7.74
2022-12-03T22:53:13.159Z,7.66
2022-12-03T22:55:42.910Z,7.41
2022-12-03T22:58:12.704Z,7.03
2022-12-03T23:00:42.629Z,7.45
2022-12-03T23:03:11.548Z,7.26
2022-12-03T23:05:40.962Z,7.42
2022-12-03T23:08:13.493Z,7.93
2022-12-03T23:10:44.365Z,8.15
2022-12-03T23:13:14.070Z,8.18
2022-12-03T23:15:46.085Z,7.75
2022-12-03T23:18:15.194Z,8.18
2022-12-03T23:20:45.313Z,8.25
2022-12-03T23:23:16.311Z,8.24
2022-12-03T23:25:45.192Z,8.19
2022-12-03T23:28:14.042Z,8.21
2022-12-03T23:30:42.950Z,8.42
2022-12-03T23:33:11.773Z,8.54
2022-12-03T23:35:40.789Z,8.56
2022-12-03T23:38:09.678Z,8.33
2022-12-03T23:40:43.510Z,8.06
2022-12-03T23:43:16.743Z,8.18
2022-12-03T23:45:45.661Z,8.54
2022-12-03T23:48:14.556Z,8.12
2022-12-03T23:50:43.521Z,8.42
2022-12-03T23:53:12.438Z,8.27
2022-12-03T23:55:42.753Z,8.31
2022-12-03T23:58:11.622Z,8.58
